Time;durP1;ratioP1;P1;durP2;ratioP2;P2;SDS_P1;SDS_P2;PMS_P1;PMS_P2;Temp;Humidity;BMP_temperature;BMP_pressure;BME280_temperature;BME280_humidity;BME280_pressure;Samples;Min_cycle;Max_cycle;Signal;HPM_P1;HPM_P2
2022/09/09 00:02:30;;;;;;;1.40;0.88;;;17.00;99.90;;;;;;4967664;28;20220;-77
2022/09/09 00:05:01;;;;;;;1.63;0.75;;;16.90;99.90;;;;;;4971576;28;20204;-77
2022/09/09 00:07:39;;;;;;;1.83;0.50;;;16.90;99.90;;;;;;4987875;28;20216;-78
2022/09/09 00:10:18;;;;;;;1.95;0.80;;;16.90;99.90;;;;;;4978388;28;20220;-78
2022/09/09 00:12:55;;;;;;;1.33;0.77;;;16.90;99.90;;;;;;4969602;28;20200;-78
2022/09/09 00:15:26;;;;;;;1.05;0.57;;;16.90;99.90;;;;;;4971100;28;20231;-77
2022/09/09 00:18:01;;;;;;;1.77;0.70;;;16.90;99.90;;;;;;4994099;28;20192;-78
2022/09/09 00:20:35;;;;;;;1.30;0.60;;;16.70;99.90;;;;;;4970374;28;20219;-78
2022/09/09 00:23:12;;;;;;;1.77;0.80;;;16.80;99.90;;;;;;4975433;28;20215;-78
2022/09/09 00:25:48;;;;;;;2.72;0.50;;;16.70;99.90;;;;;;4955438;28;20201;-77
2022/09/09 00:28:20;;;;;;;1.45;0.80;;;16.70;99.90;;;;;;4974724;28;20211;-77
2022/09/09 00:30:49;;;;;;;0.80;0.50;;;16.70;99.90;;;;;;4973350;28;20240;-77
2022/09/09 00:33:21;;;;;;;2.03;0.75;;;16.60;99.90;;;;;;4950974;28;20202;-77
2022/09/09 00:35:50;;;;;;;0.95;0.60;;;16.70;99.90;;;;;;4952348;28;20216;-77
2022/09/09 00:38:23;;;;;;;1.48;0.88;;;16.70;99.90;;;;;;4955701;28;20209;-77
2022/09/09 00:40:53;;;;;;;2.40;0.73;;;16.70;99.90;;;;;;4956547;28;20225;-77
2022/09/09 00:43:29;;;;;;;1.80;0.90;;;16.80;99.90;;;;;;4953802;28;20198;-77
2022/09/09 00:46:26;;;;;;;1.75;0.80;;;16.80;99.90;;;;;;4956655;28;20200;-78
2022/09/09 00:49:05;;;;;;;0.65;0.52;;;16.70;99.90;;;;;;4957974;28;20257;-77
2022/09/09 00:51:46;;;;;;;2.35;1.00;;;16.70;99.90;;;;;;4976036;28;20193;-78
2022/09/09 00:54:27;;;;;;;1.90;0.70;;;16.70;99.90;;;;;;4947280;28;20200;-77
2022/09/09 00:57:05;;;;;;;1.45;0.52;;;16.80;99.90;;;;;;4948589;28;20684;-77
2022/09/09 00:59:43;;;;;;;2.08;0.85;;;16.80;99.90;;;;;;4948094;28;20229;-78
2022/09/09 01:02:18;;;;;;;1.33;0.65;;;16.90;99.90;;;;;;4970831;28;20723;-78
2022/09/09 01:04:47;;;;;;;1.23;0.50;;;16.90;99.90;;;;;;4955176;28;20699;-78
2022/09/09 01:07:18;;;;;;;1.63;0.80;;;16.90;99.90;;;;;;4945833;28;20563;-78
2022/09/09 01:09:56;;;;;;;2.72;0.77;;;16.80;99.90;;;;;;4943933;28;20244;-78
2022/09/09 01:12:36;;;;;;;1.30;0.73;;;16.60;99.90;;;;;;4952302;28;20201;-78
2022/09/09 01:15:11;;;;;;;1.27;0.60;;;16.50;99.90;;;;;;4969049;28;20197;-78
2022/09/09 01:17:54;;;;;;;1.40;0.60;;;16.50;99.90;;;;;;4948103;28;20204;-77
2022/09/09 01:20:26;;;;;;;1.95;0.80;;;16.70;99.90;;;;;;4948842;28;20220;-78
2022/09/09 01:23:14;;;;;;;1.23;0.90;;;16.70;99.90;;;;;;4951506;28;20221;-78
2022/09/09 01:26:27;;;;;;;2.08;0.90;;;16.80;99.90;;;;;;4960223;28;20197;-78
2022/09/09 01:28:57;;;;;;;2.00;1.15;;;17.00;99.90;;;;;;4922590;28;20197;-78
2022/09/09 01:31:40;;;;;;;1.10;0.98;;;16.90;99.90;;;;;;4954879;28;20208;-77
2022/09/09 01:34:13;;;;;;;2.92;1.40;;;17.00;99.90;;;;;;4953931;28;20577;-78
2022/09/09 01:36:47;;;;;;;2.47;1.50;;;16.80;99.90;;;;;;4950881;28;20200;-77
2022/09/09 01:39:15;;;;;;;4.50;1.77;;;16.90;99.90;;;;;;4949029;28;20693;-77
2022/09/09 01:41:45;;;;;;;1.60;1.50;;;16.80;99.90;;;;;;4954621;28;20217;-77
2022/09/09 01:44:15;;;;;;;4.30;1.80;;;16.70;99.90;;;;;;4948132;28;20573;-77
2022/09/09 01:46:45;;;;;;;4.03;1.70;;;16.70;99.90;;;;;;4951568;28;20202;-77
2022/09/09 01:49:17;;;;;;;2.55;1.90;;;16.70;99.90;;;;;;4965292;28;20256;-78
2022/09/09 01:51:50;;;;;;;3.60;1.77;;;16.80;99.90;;;;;;4950124;28;20197;-78
2022/09/09 01:54:18;;;;;;;2.88;2.00;;;16.80;99.90;;;;;;4944779;28;20201;-78
2022/09/09 01:56:59;;;;;;;3.83;1.70;;;16.90;99.90;;;;;;4943156;28;20202;-78
2022/09/09 01:59:46;;;;;;;2.95;1.80;;;16.90;99.90;;;;;;4954212;28;20240;-78
2022/09/09 02:02:18;;;;;;;4.53;2.20;;;16.90;99.90;;;;;;4950491;28;20220;-78
2022/09/09 02:05:13;;;;;;;2.88;1.95;;;16.90;99.90;;;;;;4968483;28;20202;-78
2022/09/09 02:07:42;;;;;;;3.97;2.75;;;16.90;99.90;;;;;;4954253;28;20212;-78
2022/09/09 02:10:26;;;;;;;3.78;2.10;;;16.90;99.90;;;;;;4954673;28;20628;-78
2022/09/09 02:13:10;;;;;;;5.55;2.10;;;16.80;99.90;;;;;;4951304;28;20196;-78
2022/09/09 02:15:46;;;;;;;3.28;1.88;;;16.80;99.90;;;;;;4953135;28;20193;-78
2022/09/09 02:18:22;;;;;;;3.50;1.90;;;16.80;99.90;;;;;;4950646;28;20207;-77
2022/09/09 02:20:51;;;;;;;3.10;1.73;;;16.80;99.90;;;;;;4950849;28;20224;-77
2022/09/09 02:23:19;;;;;;;2.90;1.88;;;16.80;99.90;;;;;;4947584;28;20205;-77
2022/09/09 02:25:51;;;;;;;4.80;2.08;;;16.80;99.90;;;;;;4952224;28;20197;-77
2022/09/09 02:28:28;;;;;;;3.95;2.10;;;16.70;99.90;;;;;;4949433;28;20209;-77
2022/09/09 02:30:58;;;;;;;4.40;2.35;;;16.80;99.90;;;;;;4953876;28;20221;-78
2022/09/09 02:33:37;;;;;;;4.40;2.22;;;16.80;99.90;;;;;;4951373;28;20203;-78
2022/09/09 02:36:08;;;;;;;3.47;2.22;;;16.80;99.90;;;;;;4950069;28;20688;-78
2022/09/09 02:38:41;;;;;;;5.93;2.15;;;16.90;99.90;;;;;;4946731;28;20213;-78
2022/09/09 02:41:13;;;;;;;2.28;1.90;;;16.90;99.90;;;;;;4943007;28;20208;-77
2022/09/09 02:43:42;;;;;;;3.13;2.08;;;16.90;99.90;;;;;;4947912;28;20218;-78
2022/09/09 02:46:28;;;;;;;3.30;2.45;;;16.90;99.90;;;;;;4950510;28;20546;-78
2022/09/09 02:49:02;;;;;;;2.55;2.10;;;16.80;99.90;;;;;;4966918;28;20201;-77
2022/09/09 02:51:41;;;;;;;4.13;2.20;;;16.80;99.90;;;;;;4950262;28;20201;-78
2022/09/09 02:54:19;;;;;;;2.92;2.25;;;16.70;99.90;;;;;;4972906;28;20205;-78
2022/09/09 02:56:52;;;;;;;4.07;2.35;;;16.70;99.90;;;;;;4939468;28;20205;-78
2022/09/09 02:59:25;;;;;;;3.33;2.42;;;16.80;99.90;;;;;;4967883;28;20224;-78
2022/09/09 03:01:56;;;;;;;4.57;2.15;;;16.80;99.90;;;;;;4964867;28;20201;-78
2022/09/09 03:04:25;;;;;;;4.55;2.00;;;16.70;99.90;;;;;;4947517;28;20587;-77
2022/09/09 03:06:52;;;;;;;2.92;2.15;;;16.80;99.90;;;;;;4951000;28;20204;-77
2022/09/09 03:09:21;;;;;;;5.25;2.47;;;16.80;99.90;;;;;;4944023;28;20232;-78
2022/09/09 03:11:50;;;;;;;4.22;2.83;;;16.80;99.90;;;;;;4950503;28;20197;-77
2022/09/09 03:14:21;;;;;;;2.67;2.30;;;16.80;99.90;;;;;;4947539;28;20189;-77
2022/09/09 03:16:49;;;;;;;2.22;1.80;;;16.80;99.90;;;;;;4949168;28;20197;-78
2022/09/09 03:19:18;;;;;;;3.45;2.00;;;16.80;99.90;;;;;;4947640;28;20220;-77
2022/09/09 03:21:45;;;;;;;2.88;1.80;;;16.80;99.90;;;;;;4950015;28;20220;-78
2022/09/09 03:24:13;;;;;;;4.55;1.88;;;16.70;99.90;;;;;;4952960;28;20220;-77
2022/09/09 03:26:44;;;;;;;2.55;1.83;;;16.80;99.90;;;;;;4952105;28;20197;-78
2022/09/09 03:29:17;;;;;;;4.15;2.10;;;16.80;99.90;;;;;;4949586;28;20227;-77
2022/09/09 03:31:46;;;;;;;3.75;1.75;;;16.80;99.90;;;;;;4951497;28;20208;-78
2022/09/09 03:34:14;;;;;;;3.20;1.83;;;16.80;99.90;;;;;;4951958;28;20201;-78
2022/09/09 03:36:42;;;;;;;3.13;1.60;;;16.80;99.90;;;;;;4952045;28;20208;-78
2022/09/09 03:39:09;;;;;;;2.92;1.77;;;16.80;99.90;;;;;;4951496;28;20216;-78
2022/09/09 03:41:38;;;;;;;3.22;1.45;;;16.70;99.90;;;;;;4953617;28;20201;-78
2022/09/09 03:44:06;;;;;;;3.60;1.52;;;16.70;99.90;;;;;;4976541;28;20217;-78
2022/09/09 03:46:39;;;;;;;2.33;1.30;;;16.80;99.90;;;;;;4948718;28;20207;-78
2022/09/09 03:49:06;;;;;;;3.05;1.45;;;16.80;99.90;;;;;;4952345;28;20224;-78
2022/09/09 03:51:36;;;;;;;3.67;1.42;;;16.70;99.90;;;;;;4950139;28;20197;-77
2022/09/09 03:54:04;;;;;;;2.83;1.42;;;16.70;99.90;;;;;;4950746;28;20198;-77
2022/09/09 03:56:32;;;;;;;1.95;1.60;;;16.60;99.90;;;;;;4949277;28;20216;-77
2022/09/09 03:59:00;;;;;;;2.75;1.42;;;16.70;99.90;;;;;;4950112;28;20213;-78
2022/09/09 04:01:28;;;;;;;2.60;1.38;;;16.60;99.90;;;;;;4949078;28;20189;-78
2022/09/09 04:03:57;;;;;;;3.63;1.73;;;16.60;99.90;;;;;;4949937;28;20224;-78
2022/09/09 04:06:26;;;;;;;2.85;1.30;;;16.70;99.90;;;;;;4947829;28;20201;-78
2022/09/09 04:08:55;;;;;;;3.90;1.48;;;16.70;99.90;;;;;;4954727;28;20197;-78
2022/09/09 04:11:24;;;;;;;4.35;1.83;;;16.60;99.90;;;;;;4975240;28;20208;-78
2022/09/09 04:13:54;;;;;;;2.90;1.30;;;16.60;99.90;;;;;;4951497;28;20652;-78
2022/09/09 04:16:21;;;;;;;3.72;1.58;;;16.60;99.90;;;;;;4948500;28;20205;-78
2022/09/09 04:18:49;;;;;;;4.88;1.50;;;16.60;99.90;;;;;;4943369;28;20220;-78
2022/09/09 04:21:17;;;;;;;2.47;1.25;;;16.60;99.90;;;;;;4952446;28;20197;-78
2022/09/09 04:23:45;;;;;;;3.88;1.48;;;16.60;99.90;;;;;;4944972;28;20213;-78
2022/09/09 04:26:14;;;;;;;3.00;1.27;;;16.60;99.90;;;;;;4952395;28;20197;-78
2022/09/09 04:28:42;;;;;;;4.28;1.70;;;16.60;99.90;;;;;;4945877;28;20209;-79
2022/09/09 04:31:19;;;;;;;2.05;1.65;;;16.60;99.90;;;;;;4951722;28;20541;-78
2022/09/09 04:33:49;;;;;;;3.00;1.48;;;16.60;99.90;;;;;;4946423;28;20205;-78
2022/09/09 04:36:19;;;;;;;2.97;1.63;;;16.70;99.90;;;;;;4952845;28;20196;-78
2022/09/09 04:38:48;;;;;;;4.00;1.67;;;16.70;99.90;;;;;;4951662;28;20202;-78
2022/09/09 04:41:17;;;;;;;2.72;1.77;;;16.70;99.90;;;;;;4951427;28;20205;-78
2022/09/09 04:43:46;;;;;;;2.35;1.65;;;16.70;99.90;;;;;;4951860;28;20225;-78
2022/09/09 04:46:17;;;;;;;4.47;1.70;;;16.70;99.90;;;;;;4944618;28;20208;-78
2022/09/09 04:48:45;;;;;;;2.30;1.67;;;16.70;99.90;;;;;;4950675;28;20216;-78
2022/09/09 04:51:14;;;;;;;4.07;1.88;;;16.70;99.90;;;;;;4950740;28;20201;-78
2022/09/09 04:53:42;;;;;;;2.97;1.80;;;16.60;99.90;;;;;;4948084;28;20220;-78
2022/09/09 04:56:12;;;;;;;3.45;1.67;;;16.60;99.90;;;;;;4955933;28;20200;-78
2022/09/09 04:58:45;;;;;;;5.20;1.70;;;16.60;99.90;;;;;;4949132;28;20220;-78
2022/09/09 05:01:15;;;;;;;2.92;1.60;;;16.70;99.90;;;;;;4954773;28;20687;-78
2022/09/09 05:03:48;;;;;;;2.75;1.75;;;16.70;99.90;;;;;;4952164;28;20558;-78
2022/09/09 05:06:21;;;;;;;4.13;2.08;;;16.60;99.90;;;;;;4955060;28;20196;-78
2022/09/09 05:08:51;;;;;;;2.55;1.65;;;16.70;99.90;;;;;;4958123;28;20197;-78
2022/09/09 05:11:24;;;;;;;4.22;2.28;;;16.70;99.90;;;;;;4963320;28;20204;-78
2022/09/09 05:13:56;;;;;;;3.20;1.75;;;16.70;99.90;;;;;;4950696;28;20190;-79
2022/09/09 05:16:23;;;;;;;6.03;2.42;;;16.80;99.90;;;;;;4951834;28;20193;-78
2022/09/09 05:18:51;;;;;;;7.22;1.88;;;16.80;99.90;;;;;;4953346;28;20680;-79
2022/09/09 05:21:22;;;;;;;4.18;1.70;;;16.80;99.90;;;;;;4954066;28;20438;-77
2022/09/09 05:23:51;;;;;;;4.93;1.80;;;16.80;99.90;;;;;;4952624;28;20220;-78
2022/09/09 05:26:21;;;;;;;3.08;1.80;;;16.80;99.90;;;;;;4949487;28;20204;-77
2022/09/09 05:28:51;;;;;;;5.28;2.20;;;16.80;99.90;;;;;;4944174;28;20206;-77
2022/09/09 05:31:20;;;;;;;4.50;2.00;;;16.80;99.90;;;;;;4953488;28;20200;-77
2022/09/09 05:33:51;;;;;;;3.65;1.63;;;16.80;99.90;;;;;;4956084;28;20220;-78
2022/09/09 05:36:20;;;;;;;6.38;2.03;;;16.80;99.90;;;;;;4953189;28;20204;-78
2022/09/09 05:38:53;;;;;;;3.78;1.92;;;16.80;99.90;;;;;;4965497;28;20203;-78
2022/09/09 05:41:22;;;;;;;4.97;2.08;;;16.80;99.90;;;;;;4947585;28;20193;-78
2022/09/09 05:43:51;;;;;;;3.22;1.70;;;16.80;99.90;;;;;;4947853;29;20236;-77
2022/09/09 05:46:22;;;;;;;2.97;1.90;;;16.80;99.90;;;;;;4948630;28;20267;-78
2022/09/09 05:48:53;;;;;;;3.45;1.60;;;16.90;99.90;;;;;;4950567;28;20213;-77
2022/09/09 05:51:26;;;;;;;4.07;1.90;;;16.90;99.90;;;;;;4954112;28;20230;-77
2022/09/09 05:53:58;;;;;;;3.13;1.70;;;16.80;99.90;;;;;;4947460;28;20208;-78
2022/09/09 05:56:28;;;;;;;3.13;2.17;;;16.90;99.90;;;;;;4954086;28;20197;-78
2022/09/09 05:58:57;;;;;;;3.42;1.70;;;16.90;99.90;;;;;;4954446;28;20213;-78
2022/09/09 06:01:28;;;;;;;5.22;2.00;;;16.90;99.90;;;;;;4948405;28;20572;-78
2022/09/09 06:03:56;;;;;;;6.70;2.15;;;16.90;99.90;;;;;;4949303;28;20213;-79
2022/09/09 06:06:26;;;;;;;6.35;2.15;;;16.90;99.90;;;;;;4955040;28;20208;-77
2022/09/09 06:08:57;;;;;;;5.32;2.13;;;16.90;99.90;;;;;;4947338;28;20204;-77
2022/09/09 06:11:27;;;;;;;6.40;2.58;;;16.90;99.90;;;;;;4949193;28;20212;-77
2022/09/09 06:13:55;;;;;;;4.25;2.25;;;16.90;99.90;;;;;;4946242;28;20193;-77
2022/09/09 06:16:24;;;;;;;4.05;2.17;;;16.90;99.90;;;;;;4950285;28;20201;-77
2022/09/09 06:18:54;;;;;;;5.03;2.30;;;16.90;99.90;;;;;;4951958;28;20567;-77
2022/09/09 06:21:24;;;;;;;5.45;2.17;;;16.90;99.90;;;;;;4950805;28;20212;-77
2022/09/09 06:23:54;;;;;;;3.85;2.20;;;16.90;99.90;;;;;;4950403;28;20272;-78
2022/09/09 06:26:23;;;;;;;3.55;1.90;;;16.90;99.90;;;;;;4949683;28;20196;-77
2022/09/09 06:28:53;;;;;;;3.33;2.10;;;17.00;99.90;;;;;;4948804;28;20198;-77
2022/09/09 06:31:23;;;;;;;5.45;2.17;;;17.00;99.90;;;;;;4949875;28;20194;-78
2022/09/09 06:33:54;;;;;;;5.10;2.45;;;17.00;99.90;;;;;;4979531;28;20664;-78
2022/09/09 06:36:25;;;;;;;6.78;2.67;;;17.00;99.90;;;;;;4947224;28;20691;-77
2022/09/09 06:38:53;;;;;;;3.17;1.98;;;17.00;99.90;;;;;;4944116;28;20286;-78
2022/09/09 06:41:22;;;;;;;4.80;2.17;;;17.00;99.90;;;;;;4938517;28;20958;-78
2022/09/09 06:43:50;;;;;;;4.47;2.13;;;17.00;99.90;;;;;;4948213;28;20209;-78
2022/09/09 06:46:19;;;;;;;5.95;2.40;;;17.00;99.90;;;;;;4948558;28;20204;-79
2022/09/09 06:48:48;;;;;;;2.85;2.05;;;17.10;99.90;;;;;;4948536;28;20205;-78
2022/09/09 06:51:20;;;;;;;3.42;2.15;;;17.10;99.90;;;;;;4950247;28;20205;-78
2022/09/09 06:53:51;;;;;;;3.42;1.90;;;17.00;99.90;;;;;;4943727;28;20193;-78
2022/09/09 06:56:22;;;;;;;5.45;2.20;;;17.10;99.90;;;;;;4948791;28;20200;-78
2022/09/09 06:58:54;;;;;;;5.32;1.80;;;17.10;99.90;;;;;;4952378;28;20217;-78
2022/09/09 07:01:28;;;;;;;5.38;2.10;;;17.20;99.90;;;;;;4949893;28;20549;-78
2022/09/09 07:03:59;;;;;;;4.80;2.17;;;17.20;99.90;;;;;;4949612;28;20673;-78
2022/09/09 07:06:30;;;;;;;4.47;2.15;;;17.30;99.90;;;;;;4951123;28;20679;-78
2022/09/09 07:09:01;;;;;;;2.47;1.67;;;17.30;99.90;;;;;;4942202;29;20224;-77
2022/09/09 07:11:32;;;;;;;5.22;1.90;;;17.30;99.90;;;;;;4946745;29;20202;-77
2022/09/09 07:14:00;;;;;;;3.25;1.67;;;17.30;99.90;;;;;;4952437;28;20209;-77
2022/09/09 07:16:29;;;;;;;5.00;2.20;;;17.40;99.90;;;;;;4953123;28;20673;-79
2022/09/09 07:18:58;;;;;;;3.75;1.50;;;17.40;99.90;;;;;;4950227;28;20673;-78
2022/09/09 07:21:28;;;;;;;3.88;1.83;;;17.40;99.90;;;;;;4964161;28;20189;-79
2022/09/09 07:23:56;;;;;;;4.47;1.70;;;17.50;99.90;;;;;;4948216;28;20695;-78
2022/09/09 07:26:27;;;;;;;5.75;2.05;;;17.50;99.90;;;;;;4951142;28;20224;-78
2022/09/09 07:28:56;;;;;;;4.45;1.80;;;17.50;99.90;;;;;;4948413;28;20205;-78
2022/09/09 07:31:26;;;;;;;3.53;1.65;;;17.70;99.90;;;;;;4951776;28;20219;-78
2022/09/09 07:33:55;;;;;;;4.68;1.85;;;17.60;99.90;;;;;;4949842;28;20216;-78
2022/09/09 07:36:25;;;;;;;4.47;1.30;;;17.90;99.90;;;;;;4954741;28;20226;-77
2022/09/09 07:38:56;;;;;;;4.05;1.45;;;18.10;99.90;;;;;;4951035;28;20201;-78
2022/09/09 07:41:26;;;;;;;6.22;1.38;;;18.00;99.90;;;;;;4942574;28;20198;-79
2022/09/09 07:43:55;;;;;;;4.00;1.55;;;18.00;99.90;;;;;;4951741;28;20197;-78
2022/09/09 07:46:24;;;;;;;4.90;1.35;;;18.00;99.90;;;;;;4946385;28;20752;-78
2022/09/09 07:48:54;;;;;;;2.47;1.30;;;18.00;99.90;;;;;;4945543;28;20201;-77
2022/09/09 07:51:29;;;;;;;6.72;1.90;;;18.10;99.90;;;;;;4952593;28;20200;-82
2022/09/09 07:54:01;;;;;;;2.50;1.20;;;18.10;99.90;;;;;;4950445;28;20204;-81
2022/09/09 07:56:31;;;;;;;4.03;1.48;;;18.10;99.90;;;;;;4951239;28;20200;-80
2022/09/09 07:58:59;;;;;;;3.65;1.45;;;18.10;99.90;;;;;;4955702;28;20213;-80
2022/09/09 08:01:29;;;;;;;3.35;1.50;;;18.10;99.90;;;;;;4952470;28;20571;-80
2022/09/09 08:04:00;;;;;;;2.78;1.33;;;18.10;99.90;;;;;;4957408;28;20197;-82
2022/09/09 08:06:30;;;;;;;4.43;1.40;;;18.10;99.90;;;;;;4954961;28;20224;-81
2022/09/09 08:08:59;;;;;;;3.80;1.50;;;18.20;99.90;;;;;;4968529;28;20708;-80
2022/09/09 08:11:28;;;;;;;3.83;1.20;;;18.30;99.90;;;;;;4948571;28;20676;-80
2022/09/09 08:13:58;;;;;;;2.58;1.30;;;18.30;99.90;;;;;;4950384;29;20213;-80
2022/09/09 08:16:29;;;;;;;3.33;1.30;;;18.60;99.90;;;;;;4950752;28;20197;-80
2022/09/09 08:18:58;;;;;;;2.35;1.40;;;18.60;99.90;;;;;;4950197;28;20197;-80
2022/09/09 08:21:27;;;;;;;5.00;1.27;;;18.60;99.90;;;;;;4949238;28;20677;-81
2022/09/09 08:23:59;;;;;;;5.95;1.40;;;18.60;99.90;;;;;;4953053;28;20220;-82
2022/09/09 08:26:29;;;;;;;3.97;1.42;;;18.70;99.90;;;;;;4942293;29;20221;-82
2022/09/09 08:28:58;;;;;;;7.78;1.80;;;18.70;99.90;;;;;;4958464;28;20205;-83
2022/09/09 08:31:28;;;;;;;3.70;1.48;;;18.50;99.90;;;;;;4950081;28;20237;-80
2022/09/09 08:33:57;;;;;;;3.15;1.48;;;18.50;99.90;;;;;;4953339;28;20572;-80
2022/09/09 08:36:26;;;;;;;2.75;1.40;;;18.50;99.90;;;;;;4954167;28;20197;-79
2022/09/09 08:38:56;;;;;;;4.05;1.60;;;18.40;99.90;;;;;;4951586;28;20208;-79
2022/09/09 08:42:01;;;;;;;4.55;1.63;;;18.40;99.90;;;;;;4963710;28;20205;-80
2022/09/09 08:44:47;;;;;;;3.38;1.38;;;18.40;99.90;;;;;;4906482;28;20229;-80
2022/09/09 08:47:29;;;;;;;6.13;1.98;;;18.40;99.90;;;;;;4918738;29;20311;-80
2022/09/09 08:50:14;;;;;;;4.40;1.80;;;18.40;99.90;;;;;;4923604;29;20223;-81
2022/09/09 08:52:49;;;;;;;5.00;1.75;;;18.50;99.90;;;;;;4926612;29;20217;-80
2022/09/09 08:55:28;;;;;;;6.65;1.80;;;18.60;99.90;;;;;;4943851;28;20203;-80
2022/09/09 08:58:02;;;;;;;6.00;2.03;;;18.70;99.90;;;;;;4945293;28;20220;-80
2022/09/09 09:00:41;;;;;;;3.03;1.83;;;18.80;99.90;;;;;;4903238;29;20226;-80
2022/09/09 09:03:19;;;;;;;7.00;1.95;;;18.80;99.90;;;;;;4912420;29;20214;-80
2022/09/09 09:05:52;;;;;;;3.58;2.17;;;19.10;99.90;;;;;;4915011;29;20214;-80
2022/09/09 09:08:28;;;;;;;5.00;2.10;;;19.20;99.90;;;;;;4912140;29;20202;-80
2022/09/09 09:11:00;;;;;;;3.15;2.03;;;19.30;99.90;;;;;;4908227;29;20710;-80
2022/09/09 09:13:41;;;;;;;5.68;2.08;;;19.40;99.90;;;;;;4914876;29;20206;-80
2022/09/09 09:16:20;;;;;;;4.72;2.25;;;19.20;99.90;;;;;;4944297;28;20213;-81
2022/09/09 09:18:48;;;;;;;3.85;2.20;;;19.20;99.90;;;;;;4922344;29;20210;-80
2022/09/09 09:21:20;;;;;;;7.20;2.75;;;19.40;99.90;;;;;;4941437;28;20624;-80
2022/09/09 09:23:56;;;;;;;4.72;2.20;;;19.50;99.90;;;;;;4920881;29;20215;-80
2022/09/09 09:26:27;;;;;;;3.20;1.90;;;19.50;99.90;;;;;;4915219;29;20585;-80
2022/09/09 09:28:59;;;;;;;3.80;2.22;;;19.40;99.90;;;;;;4922130;29;20203;-80
2022/09/09 09:31:27;;;;;;;4.80;1.67;;;19.40;99.90;;;;;;4922717;29;20202;-80
2022/09/09 09:33:56;;;;;;;2.28;1.73;;;19.30;99.90;;;;;;4943021;28;20203;-80
2022/09/09 09:36:35;;;;;;;5.40;2.30;;;19.40;99.90;;;;;;4923029;29;20218;-80
2022/09/09 09:39:05;;;;;;;3.20;2.35;;;19.50;99.90;;;;;;4921045;29;20201;-79
2022/09/09 09:41:39;;;;;;;3.63;1.75;;;19.40;99.90;;;;;;4911658;29;20209;-80
2022/09/09 09:44:23;;;;;;;3.47;1.80;;;19.60;99.90;;;;;;4907969;29;20280;-80
2022/09/09 09:46:51;;;;;;;3.22;1.50;;;19.60;99.90;;;;;;4910890;29;20211;-80
2022/09/09 09:49:19;;;;;;;4.28;1.55;;;19.60;99.90;;;;;;4916202;29;20222;-81
2022/09/09 09:51:47;;;;;;;4.88;1.60;;;19.70;99.90;;;;;;4936427;29;20654;-81
2022/09/09 09:54:23;;;;;;;3.88;1.58;;;19.70;99.90;;;;;;4925750;29;20655;-80
2022/09/09 09:56:54;;;;;;;4.10;1.52;;;19.70;99.90;;;;;;4913914;29;20741;-81
2022/09/09 09:59:34;;;;;;;4.80;1.70;;;19.90;99.90;;;;;;4926454;29;20690;-80
2022/09/09 10:02:20;;;;;;;3.67;1.33;;;20.00;99.90;;;;;;4923363;29;20197;-79
2022/09/09 10:05:03;;;;;;;5.10;1.60;;;19.80;99.90;;;;;;4905614;29;20199;-80
2022/09/09 10:07:33;;;;;;;3.72;1.58;;;19.80;99.90;;;;;;4922738;29;20214;-80
2022/09/09 10:10:01;;;;;;;3.85;1.50;;;19.90;99.90;;;;;;4932887;29;20222;-80
2022/09/09 10:12:43;;;;;;;4.15;1.38;;;20.10;99.90;;;;;;4928734;29;20205;-79
2022/09/09 10:15:28;;;;;;;4.68;1.50;;;19.80;99.90;;;;;;4916999;29;20213;-80
2022/09/09 10:18:02;;;;;;;4.50;1.45;;;19.60;99.90;;;;;;4925328;29;20203;-80
2022/09/09 10:20:40;;;;;;;5.95;1.55;;;19.60;99.90;;;;;;4910842;29;20241;-80
2022/09/09 10:23:22;;;;;;;4.28;1.52;;;19.70;99.90;;;;;;4940451;28;20217;-80
2022/09/09 10:26:20;;;;;;;3.40;1.30;;;19.70;99.90;;;;;;4905432;29;20202;-80
2022/09/09 10:29:06;;;;;;;4.90;1.50;;;19.60;99.90;;;;;;4905956;29;20210;-80
2022/09/09 10:31:45;;;;;;;5.43;1.45;;;19.80;99.90;;;;;;4924906;29;20267;-80
2022/09/09 10:34:20;;;;;;;2.72;1.48;;;19.90;99.90;;;;;;4927755;29;20214;-83
2022/09/09 10:36:51;;;;;;;4.20;1.52;;;19.80;99.90;;;;;;4908519;29;20682;-80
2022/09/09 10:39:36;;;;;;;3.35;1.38;;;20.00;99.90;;;;;;4902829;29;20238;-79
2022/09/09 10:42:08;;;;;;;3.38;1.30;;;20.10;99.80;;;;;;4922980;29;20206;-79
2022/09/09 10:44:57;;;;;;;3.25;1.20;;;20.20;99.50;;;;;;4908926;29;20559;-80
2022/09/09 10:47:44;;;;;;;2.70;1.02;;;20.20;98.10;;;;;;4935778;28;20215;-79
2022/09/09 10:50:36;;;;;;;2.85;1.00;;;20.40;98.50;;;;;;4899915;29;20230;-82
2022/09/09 10:53:14;;;;;;;3.35;1.33;;;20.40;97.70;;;;;;4924518;29;20217;-79
2022/09/09 10:55:45;;;;;;;2.92;1.02;;;20.10;97.70;;;;;;4912287;29;20207;-79
2022/09/09 10:58:20;;;;;;;4.57;1.13;;;20.10;98.00;;;;;;4903491;29;20221;-79
2022/09/09 11:00:51;;;;;;;1.92;0.95;;;20.20;97.80;;;;;;4901287;29;20222;-79
2022/09/09 11:03:24;;;;;;;4.35;1.40;;;20.30;97.50;;;;;;4930021;29;20198;-79
2022/09/09 11:05:57;;;;;;;2.78;1.10;;;20.30;97.40;;;;;;4909736;29;20206;-79
2022/09/09 11:08:27;;;;;;;4.90;1.58;;;20.30;97.20;;;;;;4918207;29;20194;-82
2022/09/09 11:11:01;;;;;;;1.83;0.93;;;20.30;97.20;;;;;;4948760;28;20218;-81
2022/09/09 11:13:37;;;;;;;4.00;1.23;;;20.40;97.50;;;;;;4932253;29;20199;-82
2022/09/09 11:16:14;;;;;;;2.63;1.23;;;20.20;97.00;;;;;;4916559;29;20210;-81
2022/09/09 11:18:45;;;;;;;2.95;1.10;;;20.20;97.10;;;;;;4907502;29;20214;-80
2022/09/09 11:21:22;;;;;;;2.05;1.17;;;20.30;97.30;;;;;;4915112;29;20206;-78
2022/09/09 11:23:54;;;;;;;1.85;0.82;;;20.20;97.40;;;;;;4910363;29;20222;-79
2022/09/09 11:26:29;;;;;;;4.97;1.38;;;20.20;97.70;;;;;;4941566;28;20203;-79
2022/09/09 11:29:14;;;;;;;3.33;1.00;;;20.10;98.10;;;;;;4916425;29;20208;-81
2022/09/09 11:31:47;;;;;;;3.13;1.00;;;20.10;98.00;;;;;;4935689;28;20241;-79
2022/09/09 11:34:31;;;;;;;2.70;0.60;;;20.30;98.30;;;;;;4922081;29;20697;-79
2022/09/09 11:37:37;;;;;;;2.10;0.80;;;20.50;97.80;;;;;;4927100;29;20191;-79
2022/09/09 11:40:21;;;;;;;4.70;1.15;;;20.60;97.90;;;;;;4912329;29;20222;-79
2022/09/09 11:42:50;;;;;;;1.95;1.00;;;20.40;98.10;;;;;;4909224;29;20202;-79
2022/09/09 11:45:25;;;;;;;2.25;1.13;;;20.50;97.70;;;;;;4905335;29;20214;-81
2022/09/09 11:47:54;;;;;;;2.72;0.80;;;20.70;97.40;;;;;;4908058;29;20225;-80
2022/09/09 11:50:37;;;;;;;2.38;0.90;;;20.50;97.10;;;;;;4906266;29;20227;-80
2022/09/09 11:53:24;;;;;;;1.83;0.93;;;20.40;97.20;;;;;;4904562;29;20207;-83
2022/09/09 11:56:13;;;;;;;2.83;1.02;;;20.40;97.40;;;;;;4924036;29;20199;-84
2022/09/09 11:58:45;;;;;;;1.13;0.90;;;20.40;97.90;;;;;;4904577;29;20222;-82
2022/09/09 12:01:27;;;;;;;3.78;1.08;;;20.50;98.30;;;;;;4904741;29;20198;-83
2022/09/09 12:04:06;;;;;;;2.70;0.93;;;20.70;98.70;;;;;;4924435;29;20205;-79
2022/09/09 12:06:46;;;;;;;2.78;0.88;;;21.10;97.20;;;;;;4933754;29;20206;-82
2022/09/09 12:09:34;;;;;;;3.40;1.00;;;21.20;96.20;;;;;;4921794;29;20236;-79
2022/09/09 12:12:23;;;;;;;2.63;1.20;;;21.00;97.20;;;;;;4913619;29;20203;-79
2022/09/09 12:15:17;;;;;;;0.82;0.80;;;20.70;97.90;;;;;;4900865;29;20217;-79
2022/09/09 12:17:46;;;;;;;2.53;1.10;;;20.60;98.10;;;;;;4927458;29;20197;-79
2022/09/09 12:20:16;;;;;;;3.53;1.05;;;20.50;98.90;;;;;;4920983;29;20227;-80
2022/09/09 12:23:23;;;;;;;4.47;1.42;;;20.30;99.90;;;;;;4948949;28;20198;-79
2022/09/09 12:26:01;;;;;;;5.55;1.30;;;20.20;99.90;;;;;;4931314;29;20666;-79
2022/09/09 12:28:42;;;;;;;2.90;1.10;;;20.00;99.90;;;;;;4928981;29;20214;-79
2022/09/09 12:31:17;;;;;;;3.22;1.10;;;19.80;99.90;;;;;;4917517;29;20226;-79
2022/09/09 12:33:47;;;;;;;3.47;1.08;;;19.90;99.90;;;;;;4923602;29;20562;-79
2022/09/09 12:36:17;;;;;;;2.47;0.95;;;19.90;99.90;;;;;;4919863;29;20198;-78
2022/09/09 12:38:46;;;;;;;1.83;1.00;;;19.80;99.90;;;;;;4918743;29;20677;-79
2022/09/09 12:41:21;;;;;;;1.83;0.85;;;19.90;99.90;;;;;;4923983;29;20207;-79
2022/09/09 12:43:49;;;;;;;1.65;0.80;;;20.20;99.90;;;;;;4921301;29;20190;-79
2022/09/09 12:46:26;;;;;;;3.13;1.00;;;20.30;99.90;;;;;;4934663;29;20206;-79
2022/09/09 12:48:55;;;;;;;1.65;0.80;;;20.20;99.90;;;;;;4940954;29;20222;-79
2022/09/09 12:51:28;;;;;;;1.88;1.17;;;20.10;99.90;;;;;;4941578;28;20203;-79
2022/09/09 12:53:57;;;;;;;3.67;0.90;;;20.00;99.90;;;;;;4945499;29;20206;-79
2022/09/09 12:56:27;;;;;;;1.88;0.85;;;20.00;99.90;;;;;;4915986;29;20205;-79
2022/09/09 12:58:58;;;;;;;2.72;1.10;;;19.90;99.90;;;;;;4913697;29;20211;-79
2022/09/09 13:01:28;;;;;;;1.58;0.95;;;19.90;99.90;;;;;;4923910;29;20199;-79
2022/09/09 13:03:56;;;;;;;1.48;1.02;;;19.90;99.90;;;;;;4941133;29;20211;-79
2022/09/09 13:06:25;;;;;;;4.13;1.10;;;20.30;99.90;;;;;;4918181;29;20210;-79
2022/09/09 13:08:54;;;;;;;2.50;0.88;;;20.70;99.90;;;;;;4929640;29;20223;-82
2022/09/09 13:11:50;;;;;;;2.15;0.75;;;20.70;99.90;;;;;;4906058;29;20221;-78
2022/09/09 13:14:22;;;;;;;2.58;0.60;;;21.00;99.90;;;;;;4915824;29;20214;-78
2022/09/09 13:17:03;;;;;;;1.23;0.60;;;21.40;99.90;;;;;;4916756;29;20207;-79
2022/09/09 13:19:35;;;;;;;2.83;0.90;;;21.40;99.90;;;;;;4920827;29;20225;-78
2022/09/09 13:22:13;;;;;;;0.95;0.70;;;21.60;99.90;;;;;;4923144;29;20656;-78